アデレード の空港の天気 - METARとTAF

アデレード空港 ( YPAD / ADL ) - オーストラリア 南オーストラリア州アデレード
飛行場実況気象(Metar)
観測時間08/14 06:07 ACST (08/13 20:37 UTC)
風向・風速東北東 2m/s
視程4000m
天気現象散在した霧
少しの雲 雲底高度 300m
全天の4割程度の雲 雲底高度 670m
全天の8割程度の雲 雲底高度 910m
気温8℃
湿度100%
気圧1014hPa
METARYPAD 132037Z 06004KT 4000 BCFG FEW010 SCT022 BKN030 08/08 Q1014
過去の天気等 Google飛行場航空写真 Wunderground天気予報

過去48時間のMETAR

飛行場予報(TAF)
発表時間: 8/14 06:14 ACST (8/13 20:44 UTC)
予報対象時間: 14日5時 ACST ~ 15日9時 ACST
風向・風速北東 3m/s
視程3000m
天気現象もや
全天の4割程度の雲 雲底高度 300m
全天の4割程度の雲 雲底高度 610m
14日7時 ACST ~ 14日8時 ACST に徐々に
風向・風速北東 3m/s
視程10km以上
天気現象運行に影響にある天気現象が終了
全天の4割程度の雲 雲底高度 300m
全天の4割程度の雲 雲底高度 610m
14日11時 ACST から
風向・風速西 5m/s
視程10km以上
天気現象弱いしゅう雨
全天の8割程度の雲 雲底高度 760m
15日3時 ACST から
風向・風速西北西 4m/s
視程10km以上
天気現象弱いしゅう雨
全天の4割程度の雲 雲底高度 460m
全天の8割程度の雲 雲底高度 760m
14日5時 ACST ~ 14日11時 ACST に一時的に
視程10km以上
全天の8割程度の雲 雲底高度 300m
15日3時 ACST ~ 15日9時 ACST に一時的に
視程4000m
天気現象しゅう雨
全天の8割程度の雲 雲底高度 300m
14日5時 ACST から 確率 30% で
視程300m
天気現象
TAF AMD YPAD 132044Z 1320/1500 04005KT 3000 BR SCT010 SCT020
BECMG 1322/1323 04005KT 9999 NSW SCT010 SCT020
FM140200 27010KT 9999 -SHRA BKN025
FM141800 30007KT 9999 -SHRA SCT015 BKN025
TEMPO 1320/1402 9999 BKN010
TEMPO 1418/1500 4000 SHRA BKN010
PROB30 1320/1323 0300 FG